sensor_id;sensor_type;location;lat;lon;timestamp;temperature;humidity
39585;DHT22;25278;53.674;10.014;2022-07-05T03:31:50;13.10;99.90
39585;DHT22;25278;53.674;10.014;2022-07-05T03:34:16;13.00;99.90
39585;DHT22;25278;53.674;10.014;2022-07-05T03:36:41;13.10;99.90
39585;DHT22;25278;53.674;10.014;2022-07-05T03:39:07;13.10;99.90
39585;DHT22;25278;53.674;10.014;2022-07-05T03:41:33;13.00;99.90
39585;DHT22;25278;53.674;10.014;2022-07-05T03:43:58;13.00;99.90
39585;DHT22;25278;53.674;10.014;2022-07-05T03:46:24;13.10;99.90
39585;DHT22;25278;53.674;10.014;2022-07-05T03:48:49;13.10;99.90
39585;DHT22;25278;53.674;10.014;2022-07-05T03:51:14;13.10;99.90
39585;DHT22;25278;53.674;10.014;2022-07-05T03:53:40;13.00;99.90
39585;DHT22;25278;53.674;10.014;2022-07-05T03:56:05;13.00;99.90
39585;DHT22;25278;53.674;10.014;2022-07-05T03:58:31;13.10;99.90
39585;DHT22;25278;53.674;10.014;2022-07-05T04:00:56;13.10;99.90
39585;DHT22;25278;53.674;10.014;2022-07-05T04:03:22;13.30;99.90
39585;DHT22;25278;53.674;10.014;2022-07-05T04:05:47;13.20;99.90
39585;DHT22;25278;53.674;10.014;2022-07-05T04:08:13;13.20;99.90
39585;DHT22;25278;53.674;10.014;2022-07-05T04:10:38;13.10;99.90
39585;DHT22;25278;53.674;10.014;2022-07-05T04:13:04;13.20;99.90
39585;DHT22;25278;53.674;10.014;2022-07-05T04:15:29;13.30;99.90
39585;DHT22;25278;53.674;10.014;2022-07-05T04:17:55;13.30;99.90
39585;DHT22;25278;53.674;10.014;2022-07-05T04:20:22;13.30;99.90
39585;DHT22;25278;53.674;10.014;2022-07-05T04:22:48;13.30;99.90
39585;DHT22;25278;53.674;10.014;2022-07-05T04:25:13;13.40;99.90
39585;DHT22;25278;53.674;10.014;2022-07-05T04:27:42;13.50;99.90
39585;DHT22;25278;53.674;10.014;2022-07-05T04:30:08;13.60;99.90
39585;DHT22;25278;53.674;10.014;2022-07-05T04:32:34;13.60;99.90
39585;DHT22;25278;53.674;10.014;2022-07-05T04:34:59;13.80;99.90
39585;DHT22;25278;53.674;10.014;2022-07-05T04:37:25;13.90;99.90
39585;DHT22;25278;53.674;10.014;2022-07-05T04:39:50;14.00;99.90
39585;DHT22;25278;53.674;10.014;2022-07-05T04:42:15;14.10;99.90
39585;DHT22;25278;53.674;10.014;2022-07-05T04:44:41;14.10;99.90
39585;DHT22;25278;53.674;10.014;2022-07-05T04:47:06;14.20;99.90
39585;DHT22;25278;53.674;10.014;2022-07-05T04:49:32;14.30;99.90
39585;DHT22;25278;53.674;10.014;2022-07-05T04:51:57;14.30;99.90
39585;DHT22;25278;53.674;10.014;2022-07-05T04:54:23;14.30;99.90
39585;DHT22;25278;53.674;10.014;2022-07-05T04:56:48;14.40;99.90
39585;DHT22;25278;53.674;10.014;2022-07-05T04:59:13;14.50;99.90
39585;DHT22;25278;53.674;10.014;2022-07-05T05:01:39;14.50;99.90
39585;DHT22;25278;53.674;10.014;2022-07-05T05:04:04;14.60;99.90
39585;DHT22;25278;53.674;10.014;2022-07-05T05:06:30;14.70;99.90
39585;DHT22;25278;53.674;10.014;2022-07-05T05:08:55;14.90;99.90
39585;DHT22;25278;53.674;10.014;2022-07-05T05:11:20;15.00;99.90
39585;DHT22;25278;53.674;10.014;2022-07-05T05:13:46;15.20;99.90
39585;DHT22;25278;53.674;10.014;2022-07-05T05:16:12;15.20;99.90
39585;DHT22;25278;53.674;10.014;2022-07-05T05:18:37;15.10;99.90
39585;DHT22;25278;53.674;10.014;2022-07-05T05:21:03;15.20;99.90
39585;DHT22;25278;53.674;10.014;2022-07-05T05:23:29;15.10;99.90
39585;DHT22;25278;53.674;10.014;2022-07-05T05:25:54;15.20;99.90
39585;DHT22;25278;53.674;10.014;2022-07-05T05:28:20;15.30;99.90
39585;DHT22;25278;53.674;10.014;2022-07-05T05:30:45;15.30;99.90
39585;DHT22;25278;53.674;10.014;2022-07-05T05:33:12;15.40;99.90
39585;DHT22;25278;53.674;10.014;2022-07-05T05:35:37;15.50;99.90
39585;DHT22;25278;53.674;10.014;2022-07-05T05:38:03;15.70;99.90
39585;DHT22;25278;53.674;10.014;2022-07-05T05:40:28;15.70;99.90
39585;DHT22;25278;53.674;10.014;2022-07-05T05:42:54;15.70;99.90
39585;DHT22;25278;53.674;10.014;2022-07-05T05:45:20;15.80;99.90
39585;DHT22;25278;53.674;10.014;2022-07-05T05:47:47;15.90;99.90
39585;DHT22;25278;53.674;10.014;2022-07-05T05:50:13;16.00;99.90
39585;DHT22;25278;53.674;10.014;2022-07-05T05:52:39;16.00;99.90
39585;DHT22;25278;53.674;10.014;2022-07-05T05:55:04;16.10;99.90
39585;DHT22;25278;53.674;10.014;2022-07-05T05:57:31;16.30;99.90
39585;DHT22;25278;53.674;10.014;2022-07-05T05:59:57;16.40;99.90
39585;DHT22;25278;53.674;10.014;2022-07-05T06:02:22;16.60;99.90
39585;DHT22;25278;53.674;10.014;2022-07-05T06:04:47;16.70;99.90
39585;DHT22;25278;53.674;10.014;2022-07-05T06:07:13;16.70;99.90
39585;DHT22;25278;53.674;10.014;2022-07-05T06:09:38;16.70;99.90
39585;DHT22;25278;53.674;10.014;2022-07-05T06:12:04;16.80;99.90
39585;DHT22;25278;53.674;10.014;2022-07-05T06:14:29;16.90;99.90
39585;DHT22;25278;53.674;10.014;2022-07-05T06:16:55;17.00;99.90
39585;DHT22;25278;53.674;10.014;2022-07-05T06:19:20;17.00;99.90
39585;DHT22;25278;53.674;10.014;2022-07-05T06:21:46;16.90;99.90
39585;DHT22;25278;53.674;10.014;2022-07-05T06:24:11;16.80;99.90
39585;DHT22;25278;53.674;10.014;2022-07-05T06:26:37;17.00;99.90
39585;DHT22;25278;53.674;10.014;2022-07-05T06:29:02;17.10;99.90
39585;DHT22;25278;53.674;10.014;2022-07-05T06:31:28;17.10;99.90
39585;DHT22;25278;53.674;10.014;2022-07-05T06:33:53;17.00;99.90
39585;DHT22;25278;53.674;10.014;2022-07-05T06:36:18;17.00;99.90
39585;DHT22;25278;53.674;10.014;2022-07-05T06:38:44;17.00;99.90
39585;DHT22;25278;53.674;10.014;2022-07-05T06:41:09;17.10;99.90
39585;DHT22;25278;53.674;10.014;2022-07-05T06:43:35;17.10;99.90
39585;DHT22;25278;53.674;10.014;2022-07-05T06:46:00;17.30;99.90
39585;DHT22;25278;53.674;10.014;2022-07-05T06:48:26;17.60;99.90
39585;DHT22;25278;53.674;10.014;2022-07-05T06:50:51;17.60;99.90
39585;DHT22;25278;53.674;10.014;2022-07-05T06:53:17;17.70;99.90
39585;DHT22;25278;53.674;10.014;2022-07-05T06:55:42;17.60;99.90
39585;DHT22;25278;53.674;10.014;2022-07-05T06:58:10;17.60;99.90
39585;DHT22;25278;53.674;10.014;2022-07-05T07:00:37;17.60;99.90
39585;DHT22;25278;53.674;10.014;2022-07-05T07:03:03;17.80;99.90
39585;DHT22;25278;53.674;10.014;2022-07-05T07:05:28;17.70;99.90
39585;DHT22;25278;53.674;10.014;2022-07-05T07:07:54;17.80;99.90
39585;DHT22;25278;53.674;10.014;2022-07-05T07:13:04;17.90;99.90
39585;DHT22;25278;53.674;10.014;2022-07-05T07:15:30;18.60;99.90
39585;DHT22;25278;53.674;10.014;2022-07-05T07:17:55;18.60;99.90
39585;DHT22;25278;53.674;10.014;2022-07-05T07:20:21;18.90;99.90
39585;DHT22;25278;53.674;10.014;2022-07-05T07:25:12;19.00;99.90
39585;DHT22;25278;53.674;10.014;2022-07-05T07:27:44;19.00;99.90
39585;DHT22;25278;53.674;10.014;2022-07-05T07:30:11;18.90;99.90
39585;DHT22;25278;53.674;10.014;2022-07-05T07:35:03;18.50;99.90
39585;DHT22;25278;53.674;10.014;2022-07-05T07:37:28;18.50;99.90
39585;DHT22;25278;53.674;10.014;2022-07-05T08:11:30;18.60;99.90
39585;DHT22;25278;53.674;10.014;2022-07-05T08:13:56;19.50;99.90
39585;DHT22;25278;53.674;10.014;2022-07-05T08:18:47;19.50;99.90
39585;DHT22;25278;53.674;10.014;2022-07-05T08:21:32;19.90;99.90
39585;DHT22;25278;53.674;10.014;2022-07-05T08:24:02;19.80;99.90
39585;DHT22;25278;53.674;10.014;2022-07-05T08:26:28;19.60;99.90
39585;DHT22;25278;53.674;10.014;2022-07-05T08:28:55;19.60;99.90
39585;DHT22;25278;53.674;10.014;2022-07-05T08:31:24;19.70;99.90
39585;DHT22;25278;53.674;10.014;2022-07-05T08:33:49;19.70;99.90
39585;DHT22;25278;53.674;10.014;2022-07-05T08:36:14;19.80;99.90
39585;DHT22;25278;53.674;10.014;2022-07-05T08:38:40;19.80;99.90
39585;DHT22;25278;53.674;10.014;2022-07-05T08:41:06;19.80;99.90
39585;DHT22;25278;53.674;10.014;2022-07-05T08:43:32;19.50;99.90
39585;DHT22;25278;53.674;10.014;2022-07-05T08:45:58;19.60;99.90
39585;DHT22;25278;53.674;10.014;2022-07-05T09:20:07;20.00;99.90
39585;DHT22;25278;53.674;10.014;2022-07-05T09:25:18;20.30;99.90
39585;DHT22;25278;53.674;10.014;2022-07-05T09:27:51;20.40;99.90
39585;DHT22;25278;53.674;10.014;2022-07-05T09:32:59;20.20;99.90
39585;DHT22;25278;53.674;10.014;2022-07-05T09:35:26;20.20;99.90
39585;DHT22;25278;53.674;10.014;2022-07-05T09:37:52;20.00;99.90
39585;DHT22;25278;53.674;10.014;2022-07-05T09:40:18;19.60;99.90
39585;DHT22;25278;53.674;10.014;2022-07-05T09:42:43;19.60;99.90
39585;DHT22;25278;53.674;10.014;2022-07-05T09:45:08;19.80;99.90
39585;DHT22;25278;53.674;10.014;2022-07-05T09:47:34;20.10;99.90
39585;DHT22;25278;53.674;10.014;2022-07-05T09:49:59;20.40;99.90
39585;DHT22;25278;53.674;10.014;2022-07-05T09:52:29;20.60;99.90
39585;DHT22;25278;53.674;10.014;2022-07-05T09:55:08;20.40;99.90
39585;DHT22;25278;53.674;10.014;2022-07-05T09:57:35;20.40;99.90
39585;DHT22;25278;53.674;10.014;2022-07-05T10:05:07;20.80;99.90
39585;DHT22;25278;53.674;10.014;2022-07-05T10:07:34;21.60;99.90
39585;DHT22;25278;53.674;10.014;2022-07-05T10:10:01;21.50;99.90
39585;DHT22;25278;53.674;10.014;2022-07-05T10:12:26;20.90;99.90
39585;DHT22;25278;53.674;10.014;2022-07-05T10:14:52;20.40;99.90
39585;DHT22;25278;53.674;10.014;2022-07-05T10:17:19;20.40;99.90
39585;DHT22;25278;53.674;10.014;2022-07-05T10:19:45;20.60;99.90
39585;DHT22;25278;53.674;10.014;2022-07-05T10:22:11;20.60;99.90
39585;DHT22;25278;53.674;10.014;2022-07-05T10:24:36;21.10;99.90
39585;DHT22;25278;53.674;10.014;2022-07-05T10:27:04;21.30;99.90
39585;DHT22;25278;53.674;10.014;2022-07-05T10:29:30;21.70;99.90
39585;DHT22;25278;53.674;10.014;2022-07-05T10:31:56;21.90;99.90
39585;DHT22;25278;53.674;10.014;2022-07-05T10:34:22;22.10;99.90
39585;DHT22;25278;53.674;10.014;2022-07-05T10:36:48;22.00;99.90
39585;DHT22;25278;53.674;10.014;2022-07-05T10:39:13;21.60;99.90
39585;DHT22;25278;53.674;10.014;2022-07-05T10:41:39;21.60;99.90
39585;DHT22;25278;53.674;10.014;2022-07-05T10:44:05;21.60;99.90
39585;DHT22;25278;53.674;10.014;2022-07-05T10:49:09;21.30;99.90
39585;DHT22;25278;53.674;10.014;2022-07-05T10:51:35;21.40;99.90
39585;DHT22;25278;53.674;10.014;2022-07-05T10:54:00;21.70;99.90
39585;DHT22;25278;53.674;10.014;2022-07-05T10:56:26;22.00;99.90
39585;DHT22;25278;53.674;10.014;2022-07-05T10:59:03;22.20;99.90
39585;DHT22;25278;53.674;10.014;2022-07-05T11:01:33;22.00;99.90
39585;DHT22;25278;53.674;10.014;2022-07-05T11:06:27;23.00;99.90
39585;DHT22;25278;53.674;10.014;2022-07-05T11:11:28;23.60;99.90
39585;DHT22;25278;53.674;10.014;2022-07-05T11:13:54;23.10;99.90
39585;DHT22;25278;53.674;10.014;2022-07-05T11:16:24;22.90;99.90
39585;DHT22;25278;53.674;10.014;2022-07-05T11:18:50;22.90;99.90
39585;DHT22;25278;53.674;10.014;2022-07-05T11:21:20;23.10;99.80
39585;DHT22;25278;53.674;10.014;2022-07-05T11:23:46;22.40;99.90
39585;DHT22;25278;53.674;10.014;2022-07-05T11:26:12;22.10;99.90
39585;DHT22;25278;53.674;10.014;2022-07-05T11:28:45;22.00;99.90
39585;DHT22;25278;53.674;10.014;2022-07-05T11:31:11;22.10;99.90
39585;DHT22;25278;53.674;10.014;2022-07-05T11:33:42;22.10;99.90
39585;DHT22;25278;53.674;10.014;2022-07-05T11:36:24;22.10;99.90
39585;DHT22;25278;53.674;10.014;2022-07-05T11:39:08;22.20;99.90
39585;DHT22;25278;53.674;10.014;2022-07-05T11:41:34;22.50;99.90
39585;DHT22;25278;53.674;10.014;2022-07-05T11:44:02;22.60;99.90
39585;DHT22;25278;53.674;10.014;2022-07-05T11:46:27;23.00;99.90
39585;DHT22;25278;53.674;10.014;2022-07-05T11:48:53;22.80;99.90
39585;DHT22;25278;53.674;10.014;2022-07-05T11:51:19;22.40;99.90
39585;DHT22;25278;53.674;10.014;2022-07-05T11:53:44;22.90;99.90
39585;DHT22;25278;53.674;10.014;2022-07-05T11:56:11;23.50;99.90
39585;DHT22;25278;53.674;10.014;2022-07-05T11:58:36;23.90;99.90
39585;DHT22;25278;53.674;10.014;2022-07-05T12:01:02;24.00;98.70
39585;DHT22;25278;53.674;10.014;2022-07-05T12:03:27;23.60;98.50
39585;DHT22;25278;53.674;10.014;2022-07-05T12:05:54;23.30;99.30
39585;DHT22;25278;53.674;10.014;2022-07-05T12:08:20;23.50;99.90
39585;DHT22;25278;53.674;10.014;2022-07-05T12:10:46;23.60;99.90
39585;DHT22;25278;53.674;10.014;2022-07-05T12:13:30;23.50;99.20
39585;DHT22;25278;53.674;10.014;2022-07-05T12:15:59;23.10;98.60
39585;DHT22;25278;53.674;10.014;2022-07-05T12:18:25;23.20;98.10
39585;DHT22;25278;53.674;10.014;2022-07-05T12:20:50;23.50;98.70
39585;DHT22;25278;53.674;10.014;2022-07-05T12:23:16;23.50;98.60
39585;DHT22;25278;53.674;10.014;2022-07-05T12:25:51;23.30;98.40
39585;DHT22;25278;53.674;10.014;2022-07-05T12:28:16;22.80;98.80
39585;DHT22;25278;53.674;10.014;2022-07-05T12:30:42;22.50;99.80
39585;DHT22;25278;53.674;10.014;2022-07-05T12:33:08;22.40;99.90
39585;DHT22;25278;53.674;10.014;2022-07-05T12:35:42;22.40;99.90
39585;DHT22;25278;53.674;10.014;2022-07-05T12:38:11;22.30;99.90
39585;DHT22;25278;53.674;10.014;2022-07-05T12:40:40;22.00;99.90
39585;DHT22;25278;53.674;10.014;2022-07-05T12:43:07;22.30;99.90
39585;DHT22;25278;53.674;10.014;2022-07-05T12:45:33;22.80;99.90
39585;DHT22;25278;53.674;10.014;2022-07-05T12:48:00;22.80;99.90
39585;DHT22;25278;53.674;10.014;2022-07-05T12:50:27;22.80;99.90
39585;DHT22;25278;53.674;10.014;2022-07-05T12:53:03;22.70;99.90
39585;DHT22;25278;53.674;10.014;2022-07-05T12:55:50;22.20;99.90
39585;DHT22;25278;53.674;10.014;2022-07-05T12:58:44;21.70;99.90
39585;DHT22;25278;53.674;10.014;2022-07-05T13:09:14;21.70;99.90
39585;DHT22;25278;53.674;10.014;2022-07-05T13:11:40;22.20;99.90
39585;DHT22;25278;53.674;10.014;2022-07-05T13:14:05;22.20;99.90
39585;DHT22;25278;53.674;10.014;2022-07-05T13:16:31;22.20;99.90
39585;DHT22;25278;53.674;10.014;2022-07-05T13:19:09;21.70;99.90
39585;DHT22;25278;53.674;10.014;2022-07-05T13:21:35;21.30;99.90
39585;DHT22;25278;53.674;10.014;2022-07-05T13:24:01;21.20;99.90
39585;DHT22;25278;53.674;10.014;2022-07-05T13:26:27;21.00;99.90
39585;DHT22;25278;53.674;10.014;2022-07-05T13:28:52;20.80;99.90
39585;DHT22;25278;53.674;10.014;2022-07-05T13:31:18;20.70;99.90
39585;DHT22;25278;53.674;10.014;2022-07-05T13:33:44;20.70;99.90
39585;DHT22;25278;53.674;10.014;2022-07-05T13:36:10;20.60;99.90
39585;DHT22;25278;53.674;10.014;2022-07-05T13:38:35;20.60;99.90
39585;DHT22;25278;53.674;10.014;2022-07-05T13:41:01;20.70;99.90
39585;DHT22;25278;53.674;10.014;2022-07-05T13:43:26;20.60;99.90
39585;DHT22;25278;53.674;10.014;2022-07-05T13:45:52;20.50;99.90
39585;DHT22;25278;53.674;10.014;2022-07-05T13:48:17;20.60;99.90
39585;DHT22;25278;53.674;10.014;2022-07-05T13:50:43;20.40;99.90
39585;DHT22;25278;53.674;10.014;2022-07-05T13:53:08;20.40;99.90
39585;DHT22;25278;53.674;10.014;2022-07-05T13:55:33;20.30;99.90
39585;DHT22;25278;53.674;10.014;2022-07-05T13:57:59;20.30;99.90
39585;DHT22;25278;53.674;10.014;2022-07-05T14:00:25;20.40;99.90
39585;DHT22;25278;53.674;10.014;2022-07-05T14:02:51;20.60;99.90
39585;DHT22;25278;53.674;10.014;2022-07-05T14:05:16;21.00;99.90
39585;DHT22;25278;53.674;10.014;2022-07-05T14:07:43;21.30;99.90
39585;DHT22;25278;53.674;10.014;2022-07-05T14:10:09;21.90;99.90
39585;DHT22;25278;53.674;10.014;2022-07-05T14:12:34;22.40;99.90
39585;DHT22;25278;53.674;10.014;2022-07-05T14:15:00;23.10;99.90
39585;DHT22;25278;53.674;10.014;2022-07-05T14:17:25;23.40;99.90
39585;DHT22;25278;53.674;10.014;2022-07-05T14:19:50;23.90;99.90
39585;DHT22;25278;53.674;10.014;2022-07-05T14:22:16;24.80;99.90
39585;DHT22;25278;53.674;10.014;2022-07-05T14:24:41;25.00;99.90
39585;DHT22;25278;53.674;10.014;2022-07-05T14:27:07;24.80;99.90
39585;DHT22;25278;53.674;10.014;2022-07-05T14:29:33;24.20;99.90
39585;DHT22;25278;53.674;10.014;2022-07-05T14:31:59;23.30;99.90
39585;DHT22;25278;53.674;10.014;2022-07-05T14:34:24;22.50;99.90
39585;DHT22;25278;53.674;10.014;2022-07-05T14:36:50;22.10;99.90
39585;DHT22;25278;53.674;10.014;2022-07-05T14:39:15;21.30;99.90
39585;DHT22;25278;53.674;10.014;2022-07-05T14:41:41;21.10;99.90
39585;DHT22;25278;53.674;10.014;2022-07-05T14:44:08;20.70;99.90
39585;DHT22;25278;53.674;10.014;2022-07-05T14:46:34;20.60;99.90
39585;DHT22;25278;53.674;10.014;2022-07-05T14:48:59;20.40;99.90
39585;DHT22;25278;53.674;10.014;2022-07-05T14:51:25;20.20;99.90
39585;DHT22;25278;53.674;10.014;2022-07-05T14:53:50;20.10;99.90
39585;DHT22;25278;53.674;10.014;2022-07-05T14:56:15;20.10;99.90
39585;DHT22;25278;53.674;10.014;2022-07-05T14:58:41;20.20;99.90
39585;DHT22;25278;53.674;10.014;2022-07-05T15:01:06;20.20;99.90
39585;DHT22;25278;53.674;10.014;2022-07-05T15:03:32;20.40;99.90
39585;DHT22;25278;53.674;10.014;2022-07-05T15:05:57;21.60;99.90
39585;DHT22;25278;53.674;10.014;2022-07-05T15:08:23;23.20;99.90
39585;DHT22;25278;53.674;10.014;2022-07-05T15:10:50;25.90;99.90
39585;DHT22;25278;53.674;10.014;2022-07-05T15:13:16;26.80;99.90
39585;DHT22;25278;53.674;10.014;2022-07-05T15:15:42;25.70;99.90
39585;DHT22;25278;53.674;10.014;2022-07-05T15:18:08;24.80;99.90
39585;DHT22;25278;53.674;10.014;2022-07-05T15:20:33;23.90;99.90
39585;DHT22;25278;53.674;10.014;2022-07-05T15:22:59;24.80;99.90
39585;DHT22;25278;53.674;10.014;2022-07-05T15:25:24;27.00;99.90
39585;DHT22;25278;53.674;10.014;2022-07-05T15:27:50;29.70;99.90
39585;DHT22;25278;53.674;10.014;2022-07-05T15:30:15;29.60;97.30
39585;DHT22;25278;53.674;10.014;2022-07-05T15:32:43;30.00;96.80
39585;DHT22;25278;53.674;10.014;2022-07-05T15:35:09;30.90;94.30
39585;DHT22;25278;53.674;10.014;2022-07-05T15:37:35;30.00;92.90
39585;DHT22;25278;53.674;10.014;2022-07-05T15:40:00;30.90;92.40
39585;DHT22;25278;53.674;10.014;2022-07-05T15:42:27;31.40;88.60
39585;DHT22;25278;53.674;10.014;2022-07-05T15:44:52;30.90;86.80
39585;DHT22;25278;53.674;10.014;2022-07-05T15:47:17;29.90;88.90
39585;DHT22;25278;53.674;10.014;2022-07-05T15:49:43;28.90;90.40
39585;DHT22;25278;53.674;10.014;2022-07-05T15:52:08;29.40;90.90
39585;DHT22;25278;53.674;10.014;2022-07-05T15:54:34;29.60;91.00
39585;DHT22;25278;53.674;10.014;2022-07-05T15:57:00;29.90;90.10
39585;DHT22;25278;53.674;10.014;2022-07-05T15:59:26;28.70;89.60
39585;DHT22;25278;53.674;10.014;2022-07-05T16:01:51;26.80;91.80
39585;DHT22;25278;53.674;10.014;2022-07-05T16:04:17;28.40;92.90
39585;DHT22;25278;53.674;10.014;2022-07-05T16:06:43;28.90;92.00
39585;DHT22;25278;53.674;10.014;2022-07-05T16:09:08;29.90;92.00
39585;DHT22;25278;53.674;10.014;2022-07-05T16:11:34;30.60;90.90
39585;DHT22;25278;53.674;10.014;2022-07-05T16:13:59;31.00;91.40
39585;DHT22;25278;53.674;10.014;2022-07-05T16:16:25;29.00;89.30
39585;DHT22;25278;53.674;10.014;2022-07-05T16:18:51;29.40;89.20
39585;DHT22;25278;53.674;10.014;2022-07-05T16:21:17;28.90;89.90
39585;DHT22;25278;53.674;10.014;2022-07-05T16:23:44;27.90;90.20
39585;DHT22;25278;53.674;10.014;2022-07-05T16:26:12;25.90;92.00
39585;DHT22;25278;53.674;10.014;2022-07-05T16:28:37;24.70;94.00
39585;DHT22;25278;53.674;10.014;2022-07-05T16:31:04;25.30;93.90
39585;DHT22;25278;53.674;10.014;2022-07-05T16:33:33;25.80;93.20
39585;DHT22;25278;53.674;10.014;2022-07-05T16:36:03;24.80;93.60
39585;DHT22;25278;53.674;10.014;2022-07-05T16:38:29;24.40;95.00
39585;DHT22;25278;53.674;10.014;2022-07-05T16:40:59;24.00;95.40
39585;DHT22;25278;53.674;10.014;2022-07-05T16:43:24;22.90;97.20
39585;DHT22;25278;53.674;10.014;2022-07-05T16:45:50;22.30;99.10
39585;DHT22;25278;53.674;10.014;2022-07-05T16:48:15;22.10;99.90
39585;DHT22;25278;53.674;10.014;2022-07-05T16:50:41;22.00;99.90
39585;DHT22;25278;53.674;10.014;2022-07-05T16:53:06;21.60;99.90
39585;DHT22;25278;53.674;10.014;2022-07-05T16:55:32;21.40;99.90
39585;DHT22;25278;53.674;10.014;2022-07-05T16:57:57;21.10;99.90
39585;DHT22;25278;53.674;10.014;2022-07-05T17:00:25;20.70;99.90
39585;DHT22;25278;53.674;10.014;2022-07-05T17:02:50;20.70;99.90
39585;DHT22;25278;53.674;10.014;2022-07-05T17:05:16;20.50;99.90
39585;DHT22;25278;53.674;10.014;2022-07-05T17:07:41;20.20;99.90
39585;DHT22;25278;53.674;10.014;2022-07-05T17:10:07;20.30;99.90
39585;DHT22;25278;53.674;10.014;2022-07-05T17:12:33;21.30;99.90
39585;DHT22;25278;53.674;10.014;2022-07-05T17:14:58;22.80;99.90
39585;DHT22;25278;53.674;10.014;2022-07-05T17:17:24;24.30;99.90
39585;DHT22;25278;53.674;10.014;2022-07-05T17:19:49;25.90;99.90
39585;DHT22;25278;53.674;10.014;2022-07-05T17:22:14;26.90;99.90
39585;DHT22;25278;53.674;10.014;2022-07-05T17:24:40;28.00;99.20
39585;DHT22;25278;53.674;10.014;2022-07-05T17:27:06;28.80;97.30
39585;DHT22;25278;53.674;10.014;2022-07-05T17:29:32;29.20;94.80
39585;DHT22;25278;53.674;10.014;2022-07-05T17:31:58;29.00;93.80
39585;DHT22;25278;53.674;10.014;2022-07-05T17:34:24;30.10;92.50
39585;DHT22;25278;53.674;10.014;2022-07-05T17:36:49;29.80;91.30
39585;DHT22;25278;53.674;10.014;2022-07-05T17:39:17;27.80;91.10
39585;DHT22;25278;53.674;10.014;2022-07-05T17:41:42;25.70;92.80
39585;DHT22;25278;53.674;10.014;2022-07-05T17:44:08;23.60;95.50
39585;DHT22;25278;53.674;10.014;2022-07-05T17:46:33;22.20;99.40
39585;DHT22;25278;53.674;10.014;2022-07-05T17:48:59;22.10;99.90
39585;DHT22;25278;53.674;10.014;2022-07-05T17:51:25;21.60;99.90
39585;DHT22;25278;53.674;10.014;2022-07-05T17:53:51;21.30;99.90
39585;DHT22;25278;53.674;10.014;2022-07-05T17:56:16;21.50;99.90
39585;DHT22;25278;53.674;10.014;2022-07-05T17:58:42;22.20;99.90
39585;DHT22;25278;53.674;10.014;2022-07-05T18:01:08;23.20;99.90
39585;DHT22;25278;53.674;10.014;2022-07-05T18:03:34;24.00;99.90
39585;DHT22;25278;53.674;10.014;2022-07-05T18:05:59;24.50;99.90
39585;DHT22;25278;53.674;10.014;2022-07-05T18:08:25;25.20;99.30
39585;DHT22;25278;53.674;10.014;2022-07-05T18:10:51;25.60;97.70
39585;DHT22;25278;53.674;10.014;2022-07-05T18:13:16;26.00;96.90
39585;DHT22;25278;53.674;10.014;2022-07-05T18:15:42;25.30;96.60
39585;DHT22;25278;53.674;10.014;2022-07-05T18:18:08;23.80;98.40
39585;DHT22;25278;53.674;10.014;2022-07-05T18:20:34;22.50;99.90
39585;DHT22;25278;53.674;10.014;2022-07-05T18:22:59;21.30;99.90
39585;DHT22;25278;53.674;10.014;2022-07-05T18:25:25;20.40;99.90
39585;DHT22;25278;53.674;10.014;2022-07-05T18:27:50;19.80;99.90
39585;DHT22;25278;53.674;10.014;2022-07-05T18:30:16;19.40;99.90
39585;DHT22;25278;53.674;10.014;2022-07-05T18:32:41;19.00;99.90
39585;DHT22;25278;53.674;10.014;2022-07-05T18:35:07;18.90;99.90
39585;DHT22;25278;53.674;10.014;2022-07-05T18:37:33;18.80;99.90
39585;DHT22;25278;53.674;10.014;2022-07-05T18:39:58;18.70;99.90
39585;DHT22;25278;53.674;10.014;2022-07-05T18:42:24;18.40;99.90
39585;DHT22;25278;53.674;10.014;2022-07-05T18:44:49;18.20;99.90
39585;DHT22;25278;53.674;10.014;2022-07-05T18:47:15;18.00;99.90
39585;DHT22;25278;53.674;10.014;2022-07-05T18:59:24;18.00;99.90
39585;DHT22;25278;53.674;10.014;2022-07-05T19:01:49;17.50;99.90
39585;DHT22;25278;53.674;10.014;2022-07-05T19:04:15;17.40;99.90
39585;DHT22;25278;53.674;10.014;2022-07-05T19:06:40;17.30;99.90
39585;DHT22;25278;53.674;10.014;2022-07-05T19:09:24;17.20;99.90
39585;DHT22;25278;53.674;10.014;2022-07-05T19:12:08;17.10;99.90
39585;DHT22;25278;53.674;10.014;2022-07-05T19:14:53;17.00;99.90
39585;DHT22;25278;53.674;10.014;2022-07-05T19:17:19;16.90;99.90
39585;DHT22;25278;53.674;10.014;2022-07-05T19:19:44;16.80;99.90
39585;DHT22;25278;53.674;10.014;2022-07-05T19:27:02;16.70;99.90
39585;DHT22;25278;53.674;10.014;2022-07-05T19:29:28;16.60;99.90
39585;DHT22;25278;53.674;10.014;2022-07-05T19:31:53;16.60;99.90
39585;DHT22;25278;53.674;10.014;2022-07-05T19:34:19;16.50;99.90
39585;DHT22;25278;53.674;10.014;2022-07-05T19:36:44;16.50;99.90
39585;DHT22;25278;53.674;10.014;2022-07-05T19:39:10;16.50;99.90
39585;DHT22;25278;53.674;10.014;2022-07-05T19:41:35;16.40;99.90
39585;DHT22;25278;53.674;10.014;2022-07-05T19:44:01;16.30;99.90
39585;DHT22;25278;53.674;10.014;2022-07-05T19:46:26;16.20;99.90
39585;DHT22;25278;53.674;10.014;2022-07-05T19:48:52;16.30;99.90
39585;DHT22;25278;53.674;10.014;2022-07-05T19:51:18;16.20;99.90
39585;DHT22;25278;53.674;10.014;2022-07-05T19:53:43;16.20;99.90
39585;DHT22;25278;53.674;10.014;2022-07-05T20:05:52;16.20;99.90
39585;DHT22;25278;53.674;10.014;2022-07-05T20:08:18;16.00;99.90
39585;DHT22;25278;53.674;10.014;2022-07-05T20:54:29;15.90;99.90
39585;DHT22;25278;53.674;10.014;2022-07-05T21:04:13;15.60;99.90
39585;DHT22;25278;53.674;10.014;2022-07-05T21:06:38;15.40;99.90
39585;DHT22;25278;53.674;10.014;2022-07-05T21:09:03;15.30;99.90
39585;DHT22;25278;53.674;10.014;2022-07-05T21:11:29;15.30;99.90
39585;DHT22;25278;53.674;10.014;2022-07-05T21:13:54;15.30;99.90
39585;DHT22;25278;53.674;10.014;2022-07-05T21:16:20;15.20;99.90
39585;DHT22;25278;53.674;10.014;2022-07-05T21:18:45;15.30;99.90
39585;DHT22;25278;53.674;10.014;2022-07-05T21:21:11;15.20;99.90
39585;DHT22;25278;53.674;10.014;2022-07-05T21:23:36;15.30;99.90
39585;DHT22;25278;53.674;10.014;2022-07-05T21:26:02;15.20;99.90
39585;DHT22;25278;53.674;10.014;2022-07-05T21:28:27;15.30;99.90
39585;DHT22;25278;53.674;10.014;2022-07-05T21:30:57;15.30;99.90
39585;DHT22;25278;53.674;10.014;2022-07-05T21:33:25;15.30;99.90
39585;DHT22;25278;53.674;10.014;2022-07-05T21:35:51;15.30;99.90